sensor_id;sensor_type;location;lat;lon;timestamp;P1;durP1;ratioP1;P2;durP2;ratioP2
11328;SDS011;5719;42.714;23.732;2022-10-15T00:01:06;4.05;;;3.00;;
11328;SDS011;5719;42.714;23.732;2022-10-15T00:03:35;4.78;;;3.10;;
11328;SDS011;5719;42.714;23.732;2022-10-15T00:06:03;4.63;;;2.78;;
11328;SDS011;5719;42.714;23.732;2022-10-15T00:08:31;5.80;;;2.78;;
11328;SDS011;5719;42.714;23.732;2022-10-15T00:11:03;3.65;;;2.67;;
11328;SDS011;5719;42.714;23.732;2022-10-15T00:13:33;2.88;;;2.65;;
11328;SDS011;5719;42.714;23.732;2022-10-15T00:16:00;3.63;;;2.60;;
11328;SDS011;5719;42.714;23.732;2022-10-15T00:18:27;2.78;;;2.50;;
11328;SDS011;5719;42.714;23.732;2022-10-15T00:20:54;5.25;;;3.00;;
11328;SDS011;5719;42.714;23.732;2022-10-15T00:23:21;3.55;;;2.72;;
11328;SDS011;5719;42.714;23.732;2022-10-15T00:25:48;5.07;;;2.90;;
11328;SDS011;5719;42.714;23.732;2022-10-15T00:28:14;4.35;;;3.05;;
11328;SDS011;5719;42.714;23.732;2022-10-15T00:30:43;5.25;;;3.17;;
11328;SDS011;5719;42.714;23.732;2022-10-15T00:33:10;4.47;;;3.30;;
11328;SDS011;5719;42.714;23.732;2022-10-15T00:35:36;4.80;;;3.30;;
11328;SDS011;5719;42.714;23.732;2022-10-15T00:38:03;3.85;;;3.17;;
11328;SDS011;5719;42.714;23.732;2022-10-15T00:40:30;7.32;;;3.28;;
11328;SDS011;5719;42.714;23.732;2022-10-15T00:42:57;4.03;;;3.53;;
11328;SDS011;5719;42.714;23.732;2022-10-15T00:45:24;4.97;;;4.00;;
11328;SDS011;5719;42.714;23.732;2022-10-15T00:47:52;4.45;;;3.55;;
11328;SDS011;5719;42.714;23.732;2022-10-15T00:50:20;8.70;;;3.95;;
11328;SDS011;5719;42.714;23.732;2022-10-15T00:52:53;6.55;;;3.63;;
11328;SDS011;5719;42.714;23.732;2022-10-15T00:55:26;5.10;;;3.22;;
11328;SDS011;5719;42.714;23.732;2022-10-15T00:57:56;5.97;;;3.47;;
11328;SDS011;5719;42.714;23.732;2022-10-15T01:00:26;4.38;;;3.45;;
11328;SDS011;5719;42.714;23.732;2022-10-15T01:02:55;5.00;;;3.50;;
11328;SDS011;5719;42.714;23.732;2022-10-15T01:05:22;5.35;;;3.75;;
11328;SDS011;5719;42.714;23.732;2022-10-15T01:07:50;5.00;;;3.60;;
11328;SDS011;5719;42.714;23.732;2022-10-15T01:10:17;5.60;;;3.40;;
11328;SDS011;5719;42.714;23.732;2022-10-15T01:12:55;4.82;;;3.35;;
11328;SDS011;5719;42.714;23.732;2022-10-15T01:15:28;3.60;;;3.15;;
11328;SDS011;5719;42.714;23.732;2022-10-15T01:18:05;5.57;;;3.83;;
11328;SDS011;5719;42.714;23.732;2022-10-15T01:20:49;6.35;;;3.97;;
11328;SDS011;5719;42.714;23.732;2022-10-15T01:26:46;6.40;;;3.20;;
11328;SDS011;5719;42.714;23.732;2022-10-15T01:32:42;6.22;;;3.42;;
11328;SDS011;5719;42.714;23.732;2022-10-15T01:35:17;4.38;;;3.40;;
11328;SDS011;5719;42.714;23.732;2022-10-15T01:37:54;6.57;;;3.60;;
11328;SDS011;5719;42.714;23.732;2022-10-15T01:40:31;4.00;;;3.38;;
11328;SDS011;5719;42.714;23.732;2022-10-15T01:43:03;7.82;;;3.90;;
11328;SDS011;5719;42.714;23.732;2022-10-15T01:45:35;8.07;;;4.10;;
11328;SDS011;5719;42.714;23.732;2022-10-15T01:48:08;8.07;;;3.72;;
11328;SDS011;5719;42.714;23.732;2022-10-15T01:50:37;6.38;;;3.70;;
11328;SDS011;5719;42.714;23.732;2022-10-15T01:53:07;4.95;;;3.67;;
11328;SDS011;5719;42.714;23.732;2022-10-15T01:55:37;10.68;;;4.05;;
11328;SDS011;5719;42.714;23.732;2022-10-15T01:58:10;6.53;;;3.58;;
11328;SDS011;5719;42.714;23.732;2022-10-15T02:00:40;6.85;;;3.65;;
11328;SDS011;5719;42.714;23.732;2022-10-15T02:03:09;7.20;;;4.38;;
11328;SDS011;5719;42.714;23.732;2022-10-15T02:05:37;3.90;;;3.58;;
11328;SDS011;5719;42.714;23.732;2022-10-15T02:08:08;5.47;;;3.50;;
11328;SDS011;5719;42.714;23.732;2022-10-15T02:10:42;5.20;;;3.97;;
11328;SDS011;5719;42.714;23.732;2022-10-15T02:13:22;5.38;;;3.63;;
11328;SDS011;5719;42.714;23.732;2022-10-15T02:15:55;7.72;;;3.88;;
11328;SDS011;5719;42.714;23.732;2022-10-15T02:18:35;5.28;;;4.03;;
11328;SDS011;5719;42.714;23.732;2022-10-15T02:21:07;5.50;;;3.75;;
11328;SDS011;5719;42.714;23.732;2022-10-15T02:23:38;4.78;;;3.58;;
11328;SDS011;5719;42.714;23.732;2022-10-15T02:26:12;3.97;;;3.50;;
11328;SDS011;5719;42.714;23.732;2022-10-15T02:28:42;4.97;;;3.67;;
11328;SDS011;5719;42.714;23.732;2022-10-15T02:31:13;6.68;;;3.60;;
11328;SDS011;5719;42.714;23.732;2022-10-15T02:33:45;8.43;;;3.70;;
11328;SDS011;5719;42.714;23.732;2022-10-15T02:36:13;5.95;;;3.83;;
11328;SDS011;5719;42.714;23.732;2022-10-15T02:38:41;6.88;;;3.70;;
11328;SDS011;5719;42.714;23.732;2022-10-15T02:41:10;4.43;;;3.38;;
11328;SDS011;5719;42.714;23.732;2022-10-15T02:43:39;8.25;;;3.88;;
11328;SDS011;5719;42.714;23.732;2022-10-15T02:46:06;5.70;;;3.88;;
11328;SDS011;5719;42.714;23.732;2022-10-15T02:48:35;4.15;;;3.40;;
11328;SDS011;5719;42.714;23.732;2022-10-15T02:51:04;6.03;;;3.80;;
11328;SDS011;5719;42.714;23.732;2022-10-15T02:53:31;6.22;;;3.72;;
11328;SDS011;5719;42.714;23.732;2022-10-15T02:55:58;9.15;;;4.00;;
11328;SDS011;5719;42.714;23.732;2022-10-15T02:58:25;3.97;;;3.45;;
11328;SDS011;5719;42.714;23.732;2022-10-15T03:00:53;4.60;;;3.50;;
11328;SDS011;5719;42.714;23.732;2022-10-15T03:03:20;6.38;;;3.72;;
11328;SDS011;5719;42.714;23.732;2022-10-15T03:05:47;6.10;;;3.60;;
11328;SDS011;5719;42.714;23.732;2022-10-15T03:08:15;4.40;;;3.75;;
11328;SDS011;5719;42.714;23.732;2022-10-15T03:10:42;4.40;;;3.40;;
11328;SDS011;5719;42.714;23.732;2022-10-15T03:13:09;4.38;;;3.35;;
11328;SDS011;5719;42.714;23.732;2022-10-15T03:15:36;4.63;;;3.33;;
11328;SDS011;5719;42.714;23.732;2022-10-15T03:18:03;7.18;;;3.83;;
11328;SDS011;5719;42.714;23.732;2022-10-15T03:20:30;5.80;;;3.50;;
11328;SDS011;5719;42.714;23.732;2022-10-15T03:22:57;5.97;;;3.63;;
11328;SDS011;5719;42.714;23.732;2022-10-15T03:25:26;6.38;;;3.55;;
11328;SDS011;5719;42.714;23.732;2022-10-15T03:27:52;6.53;;;4.00;;
11328;SDS011;5719;42.714;23.732;2022-10-15T03:30:20;4.47;;;3.72;;
11328;SDS011;5719;42.714;23.732;2022-10-15T03:32:47;8.27;;;3.88;;
11328;SDS011;5719;42.714;23.732;2022-10-15T03:35:14;5.85;;;3.40;;
11328;SDS011;5719;42.714;23.732;2022-10-15T03:37:41;6.20;;;3.60;;
11328;SDS011;5719;42.714;23.732;2022-10-15T03:40:08;4.18;;;3.33;;
11328;SDS011;5719;42.714;23.732;2022-10-15T03:42:36;4.93;;;3.50;;
11328;SDS011;5719;42.714;23.732;2022-10-15T03:45:03;4.45;;;3.42;;
11328;SDS011;5719;42.714;23.732;2022-10-15T03:47:31;8.65;;;3.85;;
11328;SDS011;5719;42.714;23.732;2022-10-15T03:49:58;9.15;;;3.70;;
11328;SDS011;5719;42.714;23.732;2022-10-15T03:52:25;4.28;;;3.20;;
11328;SDS011;5719;42.714;23.732;2022-10-15T03:54:52;8.20;;;3.78;;
11328;SDS011;5719;42.714;23.732;2022-10-15T03:57:18;5.22;;;3.92;;
11328;SDS011;5719;42.714;23.732;2022-10-15T03:59:47;6.13;;;3.70;;
11328;SDS011;5719;42.714;23.732;2022-10-15T04:02:14;5.97;;;3.70;;
11328;SDS011;5719;42.714;23.732;2022-10-15T04:04:41;6.43;;;3.50;;
11328;SDS011;5719;42.714;23.732;2022-10-15T04:07:08;5.18;;;4.25;;
11328;SDS011;5719;42.714;23.732;2022-10-15T04:09:34;8.07;;;4.05;;
11328;SDS011;5719;42.714;23.732;2022-10-15T04:12:01;8.30;;;4.38;;
11328;SDS011;5719;42.714;23.732;2022-10-15T04:14:28;7.40;;;4.82;;
11328;SDS011;5719;42.714;23.732;2022-10-15T04:16:57;11.75;;;5.00;;
11328;SDS011;5719;42.714;23.732;2022-10-15T04:19:24;9.02;;;5.18;;
11328;SDS011;5719;42.714;23.732;2022-10-15T04:21:51;8.60;;;5.18;;
11328;SDS011;5719;42.714;23.732;2022-10-15T04:24:18;8.13;;;5.32;;
11328;SDS011;5719;42.714;23.732;2022-10-15T04:26:44;9.07;;;5.63;;
11328;SDS011;5719;42.714;23.732;2022-10-15T04:29:11;8.77;;;5.60;;
11328;SDS011;5719;42.714;23.732;2022-10-15T04:31:38;6.85;;;5.30;;
11328;SDS011;5719;42.714;23.732;2022-10-15T04:34:07;8.25;;;4.82;;
11328;SDS011;5719;42.714;23.732;2022-10-15T04:36:34;8.45;;;5.10;;
11328;SDS011;5719;42.714;23.732;2022-10-15T04:39:02;9.48;;;5.55;;
11328;SDS011;5719;42.714;23.732;2022-10-15T04:41:29;11.02;;;5.85;;
11328;SDS011;5719;42.714;23.732;2022-10-15T04:43:56;6.75;;;4.95;;
11328;SDS011;5719;42.714;23.732;2022-10-15T04:46:23;9.27;;;5.13;;
11328;SDS011;5719;42.714;23.732;2022-10-15T04:48:51;11.10;;;5.20;;
11328;SDS011;5719;42.714;23.732;2022-10-15T04:51:23;8.40;;;5.45;;
11328;SDS011;5719;42.714;23.732;2022-10-15T04:53:51;7.45;;;5.40;;
11328;SDS011;5719;42.714;23.732;2022-10-15T04:56:18;12.82;;;6.47;;
11328;SDS011;5719;42.714;23.732;2022-10-15T04:58:47;7.65;;;5.70;;
11328;SDS011;5719;42.714;23.732;2022-10-15T05:01:16;10.52;;;6.32;;
11328;SDS011;5719;42.714;23.732;2022-10-15T05:03:45;10.02;;;6.65;;
11328;SDS011;5719;42.714;23.732;2022-10-15T05:06:14;14.50;;;6.25;;
11328;SDS011;5719;42.714;23.732;2022-10-15T05:08:45;8.32;;;6.20;;
11328;SDS011;5719;42.714;23.732;2022-10-15T05:11:13;10.88;;;6.43;;
11328;SDS011;5719;42.714;23.732;2022-10-15T05:13:41;9.20;;;6.65;;
11328;SDS011;5719;42.714;23.732;2022-10-15T05:16:09;11.90;;;6.10;;
11328;SDS011;5719;42.714;23.732;2022-10-15T05:18:38;10.75;;;6.20;;
11328;SDS011;5719;42.714;23.732;2022-10-15T05:21:05;8.77;;;5.85;;
11328;SDS011;5719;42.714;23.732;2022-10-15T05:23:32;14.52;;;5.70;;
11328;SDS011;5719;42.714;23.732;2022-10-15T05:26:02;7.88;;;6.25;;
11328;SDS011;5719;42.714;23.732;2022-10-15T05:28:31;9.55;;;6.28;;
11328;SDS011;5719;42.714;23.732;2022-10-15T05:31:02;10.57;;;6.40;;
11328;SDS011;5719;42.714;23.732;2022-10-15T05:33:29;8.93;;;6.05;;
11328;SDS011;5719;42.714;23.732;2022-10-15T05:35:56;8.07;;;6.35;;
11328;SDS011;5719;42.714;23.732;2022-10-15T05:38:24;10.38;;;5.80;;
11328;SDS011;5719;42.714;23.732;2022-10-15T05:40:51;11.13;;;6.07;;
11328;SDS011;5719;42.714;23.732;2022-10-15T05:43:19;8.63;;;5.63;;
11328;SDS011;5719;42.714;23.732;2022-10-15T05:45:46;9.82;;;5.85;;
11328;SDS011;5719;42.714;23.732;2022-10-15T05:48:13;10.07;;;5.55;;
11328;SDS011;5719;42.714;23.732;2022-10-15T05:50:40;8.02;;;5.60;;
11328;SDS011;5719;42.714;23.732;2022-10-15T05:53:08;9.00;;;5.70;;
11328;SDS011;5719;42.714;23.732;2022-10-15T05:55:35;9.13;;;5.68;;
11328;SDS011;5719;42.714;23.732;2022-10-15T05:58:02;8.23;;;5.63;;
11328;SDS011;5719;42.714;23.732;2022-10-15T06:00:31;10.25;;;5.55;;
11328;SDS011;5719;42.714;23.732;2022-10-15T06:02:58;8.50;;;5.40;;
11328;SDS011;5719;42.714;23.732;2022-10-15T06:05:25;10.57;;;4.90;;
11328;SDS011;5719;42.714;23.732;2022-10-15T06:07:52;6.80;;;5.22;;
11328;SDS011;5719;42.714;23.732;2022-10-15T06:10:19;8.90;;;5.50;;
11328;SDS011;5719;42.714;23.732;2022-10-15T06:12:49;9.13;;;5.78;;
11328;SDS011;5719;42.714;23.732;2022-10-15T06:15:17;9.35;;;4.82;;
11328;SDS011;5719;42.714;23.732;2022-10-15T06:17:45;11.70;;;5.47;;
11328;SDS011;5719;42.714;23.732;2022-10-15T06:20:12;7.97;;;5.40;;
11328;SDS011;5719;42.714;23.732;2022-10-15T06:22:39;8.60;;;4.82;;
11328;SDS011;5719;42.714;23.732;2022-10-15T06:25:07;9.15;;;5.20;;
11328;SDS011;5719;42.714;23.732;2022-10-15T06:27:35;6.90;;;4.88;;
11328;SDS011;5719;42.714;23.732;2022-10-15T06:30:02;8.57;;;5.28;;
11328;SDS011;5719;42.714;23.732;2022-10-15T06:32:30;7.22;;;5.25;;
11328;SDS011;5719;42.714;23.732;2022-10-15T06:34:58;6.32;;;4.78;;
11328;SDS011;5719;42.714;23.732;2022-10-15T06:37:29;9.25;;;4.35;;
11328;SDS011;5719;42.714;23.732;2022-10-15T06:39:56;6.47;;;4.35;;
11328;SDS011;5719;42.714;23.732;2022-10-15T06:42:22;7.75;;;4.60;;
11328;SDS011;5719;42.714;23.732;2022-10-15T06:44:49;6.43;;;4.32;;
11328;SDS011;5719;42.714;23.732;2022-10-15T06:47:16;5.32;;;3.83;;
11328;SDS011;5719;42.714;23.732;2022-10-15T06:49:43;5.75;;;4.03;;
11328;SDS011;5719;42.714;23.732;2022-10-15T06:52:12;5.55;;;3.78;;
11328;SDS011;5719;42.714;23.732;2022-10-15T06:54:38;3.95;;;3.53;;
11328;SDS011;5719;42.714;23.732;2022-10-15T06:57:05;6.38;;;3.88;;
11328;SDS011;5719;42.714;23.732;2022-10-15T06:59:32;5.78;;;3.53;;
11328;SDS011;5719;42.714;23.732;2022-10-15T07:01:59;5.30;;;3.80;;
11328;SDS011;5719;42.714;23.732;2022-10-15T07:04:26;9.30;;;4.00;;
11328;SDS011;5719;42.714;23.732;2022-10-15T07:06:53;5.50;;;3.65;;
11328;SDS011;5719;42.714;23.732;2022-10-15T07:09:21;5.55;;;3.58;;
11328;SDS011;5719;42.714;23.732;2022-10-15T07:11:48;4.35;;;3.78;;
11328;SDS011;5719;42.714;23.732;2022-10-15T07:14:15;3.80;;;3.40;;
11328;SDS011;5719;42.714;23.732;2022-10-15T07:16:42;4.43;;;3.80;;
11328;SDS011;5719;42.714;23.732;2022-10-15T07:19:09;6.65;;;3.25;;
11328;SDS011;5719;42.714;23.732;2022-10-15T07:21:36;4.70;;;3.35;;
11328;SDS011;5719;42.714;23.732;2022-10-15T07:24:03;4.85;;;3.53;;
11328;SDS011;5719;42.714;23.732;2022-10-15T07:26:32;5.55;;;3.45;;
11328;SDS011;5719;42.714;23.732;2022-10-15T07:28:59;4.22;;;3.50;;
11328;SDS011;5719;42.714;23.732;2022-10-15T07:31:26;5.00;;;3.70;;
11328;SDS011;5719;42.714;23.732;2022-10-15T07:33:53;4.03;;;3.20;;
11328;SDS011;5719;42.714;23.732;2022-10-15T07:36:20;6.28;;;3.95;;
11328;SDS011;5719;42.714;23.732;2022-10-15T07:38:47;3.60;;;2.70;;
11328;SDS011;5719;42.714;23.732;2022-10-15T07:41:14;6.18;;;3.13;;
11328;SDS011;5719;42.714;23.732;2022-10-15T07:43:42;6.35;;;3.70;;
11328;SDS011;5719;42.714;23.732;2022-10-15T07:46:09;4.63;;;3.10;;
11328;SDS011;5719;42.714;23.732;2022-10-15T07:48:37;3.63;;;3.20;;
11328;SDS011;5719;42.714;23.732;2022-10-15T07:51:04;5.70;;;3.08;;
11328;SDS011;5719;42.714;23.732;2022-10-15T07:53:32;6.20;;;3.45;;
11328;SDS011;5719;42.714;23.732;2022-10-15T07:56:00;3.47;;;2.88;;
11328;SDS011;5719;42.714;23.732;2022-10-15T07:58:28;7.38;;;2.90;;
11328;SDS011;5719;42.714;23.732;2022-10-15T08:01:00;4.85;;;3.08;;
11328;SDS011;5719;42.714;23.732;2022-10-15T08:03:27;4.10;;;3.47;;
11328;SDS011;5719;42.714;23.732;2022-10-15T08:05:54;5.47;;;3.60;;
11328;SDS011;5719;42.714;23.732;2022-10-15T08:08:21;8.40;;;3.30;;
11328;SDS011;5719;42.714;23.732;2022-10-15T08:10:48;4.70;;;2.90;;
11328;SDS011;5719;42.714;23.732;2022-10-15T08:13:15;4.28;;;3.30;;
11328;SDS011;5719;42.714;23.732;2022-10-15T08:15:42;5.03;;;3.25;;
11328;SDS011;5719;42.714;23.732;2022-10-15T08:18:10;7.63;;;3.42;;
11328;SDS011;5719;42.714;23.732;2022-10-15T08:20:38;4.15;;;3.38;;
11328;SDS011;5719;42.714;23.732;2022-10-15T08:23:05;3.67;;;3.22;;
11328;SDS011;5719;42.714;23.732;2022-10-15T08:25:40;5.15;;;3.30;;
11328;SDS011;5719;42.714;23.732;2022-10-15T08:28:07;5.43;;;2.88;;
11328;SDS011;5719;42.714;23.732;2022-10-15T08:30:35;8.20;;;4.03;;
11328;SDS011;5719;42.714;23.732;2022-10-15T08:33:02;6.30;;;3.40;;
11328;SDS011;5719;42.714;23.732;2022-10-15T08:35:30;5.43;;;3.90;;
11328;SDS011;5719;42.714;23.732;2022-10-15T08:37:59;3.13;;;2.83;;
11328;SDS011;5719;42.714;23.732;2022-10-15T08:40:26;5.32;;;3.15;;
11328;SDS011;5719;42.714;23.732;2022-10-15T08:42:54;6.72;;;3.70;;
11328;SDS011;5719;42.714;23.732;2022-10-15T08:45:23;3.75;;;3.42;;
11328;SDS011;5719;42.714;23.732;2022-10-15T08:47:55;10.10;;;3.20;;
11328;SDS011;5719;42.714;23.732;2022-10-15T08:50:26;4.15;;;2.83;;
11328;SDS011;5719;42.714;23.732;2022-10-15T08:53:01;6.72;;;2.47;;
11328;SDS011;5719;42.714;23.732;2022-10-15T08:55:28;3.22;;;2.50;;
11328;SDS011;5719;42.714;23.732;2022-10-15T08:58:05;3.90;;;2.85;;
11328;SDS011;5719;42.714;23.732;2022-10-15T09:00:42;9.70;;;2.70;;
11328;SDS011;5719;42.714;23.732;2022-10-15T09:03:17;2.55;;;2.35;;
11328;SDS011;5719;42.714;23.732;2022-10-15T09:05:56;6.13;;;2.50;;
11328;SDS011;5719;42.714;23.732;2022-10-15T09:08:37;8.90;;;2.53;;
11328;SDS011;5719;42.714;23.732;2022-10-15T09:11:12;4.35;;;3.35;;
11328;SDS011;5719;42.714;23.732;2022-10-15T09:16:11;5.97;;;2.50;;
11328;SDS011;5719;42.714;23.732;2022-10-15T09:18:43;3.90;;;2.58;;
11328;SDS011;5719;42.714;23.732;2022-10-15T09:21:12;2.55;;;2.10;;
11328;SDS011;5719;42.714;23.732;2022-10-15T09:23:42;3.53;;;2.58;;
11328;SDS011;5719;42.714;23.732;2022-10-15T09:26:15;4.20;;;2.58;;
11328;SDS011;5719;42.714;23.732;2022-10-15T09:28:51;4.22;;;2.53;;
11328;SDS011;5719;42.714;23.732;2022-10-15T09:31:22;6.20;;;3.40;;
11328;SDS011;5719;42.714;23.732;2022-10-15T09:33:55;3.88;;;2.58;;
11328;SDS011;5719;42.714;23.732;2022-10-15T09:36:33;3.47;;;2.67;;
11328;SDS011;5719;42.714;23.732;2022-10-15T09:39:23;10.15;;;3.30;;
11328;SDS011;5719;42.714;23.732;2022-10-15T09:42:02;4.57;;;2.53;;
11328;SDS011;5719;42.714;23.732;2022-10-15T09:44:36;5.88;;;3.45;;
11328;SDS011;5719;42.714;23.732;2022-10-15T09:47:16;4.78;;;2.58;;
11328;SDS011;5719;42.714;23.732;2022-10-15T09:49:48;3.88;;;2.25;;
11328;SDS011;5719;42.714;23.732;2022-10-15T09:52:16;6.05;;;2.40;;
11328;SDS011;5719;42.714;23.732;2022-10-15T09:54:54;4.85;;;2.80;;
11328;SDS011;5719;42.714;23.732;2022-10-15T09:57:29;2.75;;;1.95;;
11328;SDS011;5719;42.714;23.732;2022-10-15T09:59:59;2.72;;;1.83;;
11328;SDS011;5719;42.714;23.732;2022-10-15T10:02:28;3.25;;;2.08;;
11328;SDS011;5719;42.714;23.732;2022-10-15T10:04:55;2.85;;;1.98;;
11328;SDS011;5719;42.714;23.732;2022-10-15T10:07:29;3.42;;;2.15;;
11328;SDS011;5719;42.714;23.732;2022-10-15T10:10:00;3.05;;;1.92;;
11328;SDS011;5719;42.714;23.732;2022-10-15T10:12:31;3.90;;;1.80;;
11328;SDS011;5719;42.714;23.732;2022-10-15T10:15:05;6.13;;;2.40;;
11328;SDS011;5719;42.714;23.732;2022-10-15T10:17:51;4.65;;;2.05;;
11328;SDS011;5719;42.714;23.732;2022-10-15T10:20:18;2.38;;;1.92;;
11328;SDS011;5719;42.714;23.732;2022-10-15T10:22:47;2.40;;;2.20;;
11328;SDS011;5719;42.714;23.732;2022-10-15T10:28:12;4.00;;;2.20;;
11328;SDS011;5719;42.714;23.732;2022-10-15T10:30:57;3.17;;;2.25;;
11328;SDS011;5719;42.714;23.732;2022-10-15T10:33:28;3.22;;;2.20;;
11328;SDS011;5719;42.714;23.732;2022-10-15T10:35:57;4.95;;;2.33;;
11328;SDS011;5719;42.714;23.732;2022-10-15T10:38:25;2.58;;;2.05;;
11328;SDS011;5719;42.714;23.732;2022-10-15T10:40:57;4.13;;;2.00;;
11328;SDS011;5719;42.714;23.732;2022-10-15T10:43:29;3.45;;;1.88;;
11328;SDS011;5719;42.714;23.732;2022-10-15T10:45:58;2.63;;;2.00;;
11328;SDS011;5719;42.714;23.732;2022-10-15T10:48:27;4.00;;;2.30;;
11328;SDS011;5719;42.714;23.732;2022-10-15T10:51:03;2.67;;;2.45;;
11328;SDS011;5719;42.714;23.732;2022-10-15T10:53:38;2.25;;;2.05;;
11328;SDS011;5719;42.714;23.732;2022-10-15T10:56:17;2.10;;;1.80;;
11328;SDS011;5719;42.714;23.732;2022-10-15T10:58:47;3.00;;;1.90;;
11328;SDS011;5719;42.714;23.732;2022-10-15T11:01:20;3.17;;;2.00;;
11328;SDS011;5719;42.714;23.732;2022-10-15T11:03:47;5.07;;;2.08;;
11328;SDS011;5719;42.714;23.732;2022-10-15T11:09:12;2.97;;;1.95;;
11328;SDS011;5719;42.714;23.732;2022-10-15T11:11:52;2.15;;;1.92;;
11328;SDS011;5719;42.714;23.732;2022-10-15T11:14:32;3.07;;;2.07;;
11328;SDS011;5719;42.714;23.732;2022-10-15T11:17:13;2.53;;;2.05;;
11328;SDS011;5719;42.714;23.732;2022-10-15T11:19:51;5.78;;;2.10;;
11328;SDS011;5719;42.714;23.732;2022-10-15T11:25:08;3.38;;;2.08;;
11328;SDS011;5719;42.714;23.732;2022-10-15T11:27:54;3.35;;;2.17;;
11328;SDS011;5719;42.714;23.732;2022-10-15T11:30:43;6.65;;;2.00;;
11328;SDS011;5719;42.714;23.732;2022-10-15T11:33:19;7.40;;;2.85;;
11328;SDS011;5719;42.714;23.732;2022-10-15T11:35:58;2.88;;;2.05;;
11328;SDS011;5719;42.714;23.732;2022-10-15T11:38:33;4.82;;;2.25;;
11328;SDS011;5719;42.714;23.732;2022-10-15T11:41:20;3.33;;;2.17;;
11328;SDS011;5719;42.714;23.732;2022-10-15T11:44:11;7.53;;;2.30;;
11328;SDS011;5719;42.714;23.732;2022-10-15T11:46:49;2.25;;;1.92;;
11328;SDS011;5719;42.714;23.732;2022-10-15T11:49:30;5.15;;;2.03;;
11328;SDS011;5719;42.714;23.732;2022-10-15T11:52:15;3.20;;;2.17;;
11328;SDS011;5719;42.714;23.732;2022-10-15T11:54:54;2.97;;;2.03;;
11328;SDS011;5719;42.714;23.732;2022-10-15T11:57:28;3.42;;;1.88;;
11328;SDS011;5719;42.714;23.732;2022-10-15T12:00:00;3.22;;;1.90;;
11328;SDS011;5719;42.714;23.732;2022-10-15T12:02:33;2.55;;;2.15;;
11328;SDS011;5719;42.714;23.732;2022-10-15T12:05:04;2.45;;;1.98;;
11328;SDS011;5719;42.714;23.732;2022-10-15T12:07:33;4.45;;;1.98;;
11328;SDS011;5719;42.714;23.732;2022-10-15T12:10:08;4.63;;;2.20;;
11328;SDS011;5719;42.714;23.732;2022-10-15T12:12:48;4.60;;;2.50;;
11328;SDS011;5719;42.714;23.732;2022-10-15T12:15:25;5.05;;;2.35;;
11328;SDS011;5719;42.714;23.732;2022-10-15T12:17:57;2.22;;;2.00;;
11328;SDS011;5719;42.714;23.732;2022-10-15T12:20:29;5.43;;;2.40;;
11328;SDS011;5719;42.714;23.732;2022-10-15T12:22:57;6.60;;;2.00;;
11328;SDS011;5719;42.714;23.732;2022-10-15T12:25:39;4.57;;;2.00;;
11328;SDS011;5719;42.714;23.732;2022-10-15T12:28:12;4.63;;;1.60;;
11328;SDS011;5719;42.714;23.732;2022-10-15T12:30:42;5.65;;;2.00;;
11328;SDS011;5719;42.714;23.732;2022-10-15T12:33:22;3.97;;;1.90;;
11328;SDS011;5719;42.714;23.732;2022-10-15T12:35:52;5.20;;;2.05;;
11328;SDS011;5719;42.714;23.732;2022-10-15T12:38:23;2.55;;;1.98;;
11328;SDS011;5719;42.714;23.732;2022-10-15T12:40:55;2.20;;;1.67;;
11328;SDS011;5719;42.714;23.732;2022-10-15T12:43:25;2.55;;;1.75;;
11328;SDS011;5719;42.714;23.732;2022-10-15T12:45:55;2.47;;;1.80;;
11328;SDS011;5719;42.714;23.732;2022-10-15T12:48:28;3.40;;;1.90;;
11328;SDS011;5719;42.714;23.732;2022-10-15T13:03:06;3.58;;;2.00;;
11328;SDS011;5719;42.714;23.732;2022-10-15T13:05:36;2.85;;;1.60;;
11328;SDS011;5719;42.714;23.732;2022-10-15T13:08:04;3.53;;;1.92;;
11328;SDS011;5719;42.714;23.732;2022-10-15T13:10:38;3.80;;;1.70;;
11328;SDS011;5719;42.714;23.732;2022-10-15T13:13:12;3.72;;;1.95;;
11328;SDS011;5719;42.714;23.732;2022-10-15T13:15:42;3.72;;;2.03;;
11328;SDS011;5719;42.714;23.732;2022-10-15T13:18:18;3.35;;;1.73;;
11328;SDS011;5719;42.714;23.732;2022-10-15T13:20:47;2.88;;;1.77;;
11328;SDS011;5719;42.714;23.732;2022-10-15T13:23:19;1.52;;;1.25;;
11328;SDS011;5719;42.714;23.732;2022-10-15T13:25:47;2.85;;;1.77;;
11328;SDS011;5719;42.714;23.732;2022-10-15T13:28:30;5.00;;;1.90;;
11328;SDS011;5719;42.714;23.732;2022-10-15T13:31:01;6.28;;;1.90;;
11328;SDS011;5719;42.714;23.732;2022-10-15T13:33:32;2.15;;;1.67;;
11328;SDS011;5719;42.714;23.732;2022-10-15T13:36:04;2.42;;;1.88;;
11328;SDS011;5719;42.714;23.732;2022-10-15T13:38:32;3.63;;;1.73;;
11328;SDS011;5719;42.714;23.732;2022-10-15T13:41:02;5.60;;;1.88;;
11328;SDS011;5719;42.714;23.732;2022-10-15T13:43:29;4.57;;;2.00;;
11328;SDS011;5719;42.714;23.732;2022-10-15T13:45:57;5.15;;;1.77;;
11328;SDS011;5719;42.714;23.732;2022-10-15T13:48:26;5.55;;;1.95;;
11328;SDS011;5719;42.714;23.732;2022-10-15T13:50:56;3.22;;;1.65;;
11328;SDS011;5719;42.714;23.732;2022-10-15T13:53:26;2.80;;;1.48;;
11328;SDS011;5719;42.714;23.732;2022-10-15T13:55:55;2.15;;;1.88;;
11328;SDS011;5719;42.714;23.732;2022-10-15T13:58:24;3.90;;;1.70;;
11328;SDS011;5719;42.714;23.732;2022-10-15T14:00:55;3.03;;;1.88;;
11328;SDS011;5719;42.714;23.732;2022-10-15T14:03:24;3.28;;;1.75;;
11328;SDS011;5719;42.714;23.732;2022-10-15T14:05:54;4.13;;;2.17;;
11328;SDS011;5719;42.714;23.732;2022-10-15T14:08:23;3.80;;;1.70;;
11328;SDS011;5719;42.714;23.732;2022-10-15T14:10:53;1.70;;;1.50;;
11328;SDS011;5719;42.714;23.732;2022-10-15T14:13:23;2.65;;;1.50;;
11328;SDS011;5719;42.714;23.732;2022-10-15T14:15:58;6.43;;;1.70;;
11328;SDS011;5719;42.714;23.732;2022-10-15T14:18:29;2.47;;;1.65;;
11328;SDS011;5719;42.714;23.732;2022-10-15T14:21:00;3.15;;;1.70;;
11328;SDS011;5719;42.714;23.732;2022-10-15T14:23:28;2.67;;;1.73;;
11328;SDS011;5719;42.714;23.732;2022-10-15T14:25:57;3.63;;;1.35;;
11328;SDS011;5719;42.714;23.732;2022-10-15T14:28:25;4.53;;;2.08;;
11328;SDS011;5719;42.714;23.732;2022-10-15T14:30:53;6.32;;;2.10;;
11328;SDS011;5719;42.714;23.732;2022-10-15T14:33:28;4.53;;;2.10;;
11328;SDS011;5719;42.714;23.732;2022-10-15T14:36:08;5.13;;;1.90;;
11328;SDS011;5719;42.714;23.732;2022-10-15T14:38:38;1.67;;;1.50;;
11328;SDS011;5719;42.714;23.732;2022-10-15T14:41:14;2.90;;;1.85;;
11328;SDS011;5719;42.714;23.732;2022-10-15T14:43:47;6.88;;;1.80;;
11328;SDS011;5719;42.714;23.732;2022-10-15T14:46:26;2.92;;;1.80;;
11328;SDS011;5719;42.714;23.732;2022-10-15T14:49:01;4.13;;;1.80;;
11328;SDS011;5719;42.714;23.732;2022-10-15T14:51:30;4.25;;;2.10;;
11328;SDS011;5719;42.714;23.732;2022-10-15T14:53:57;3.40;;;1.75;;
11328;SDS011;5719;42.714;23.732;2022-10-15T14:56:28;1.92;;;1.73;;
11328;SDS011;5719;42.714;23.732;2022-10-15T14:58:57;1.70;;;1.40;;
11328;SDS011;5719;42.714;23.732;2022-10-15T15:01:26;3.90;;;1.83;;
11328;SDS011;5719;42.714;23.732;2022-10-15T15:03:55;2.25;;;1.90;;
11328;SDS011;5719;42.714;23.732;2022-10-15T15:06:22;2.25;;;1.60;;
11328;SDS011;5719;42.714;23.732;2022-10-15T15:08:51;2.00;;;1.80;;
11328;SDS011;5719;42.714;23.732;2022-10-15T15:11:18;2.53;;;2.03;;
11328;SDS011;5719;42.714;23.732;2022-10-15T15:13:48;1.73;;;1.63;;
11328;SDS011;5719;42.714;23.732;2022-10-15T15:16:16;2.72;;;1.60;;
11328;SDS011;5719;42.714;23.732;2022-10-15T15:18:43;1.83;;;1.63;;
11328;SDS011;5719;42.714;23.732;2022-10-15T15:21:13;2.38;;;1.88;;
11328;SDS011;5719;42.714;23.732;2022-10-15T15:23:41;4.60;;;1.88;;
11328;SDS011;5719;42.714;23.732;2022-10-15T15:26:11;6.40;;;2.17;;
11328;SDS011;5719;42.714;23.732;2022-10-15T15:28:38;5.70;;;2.30;;
11328;SDS011;5719;42.714;23.732;2022-10-15T15:31:06;4.93;;;2.13;;
11328;SDS011;5719;42.714;23.732;2022-10-15T15:33:38;2.00;;;1.90;;
11328;SDS011;5719;42.714;23.732;2022-10-15T15:36:06;2.17;;;1.98;;